Time;durP1;ratioP1;P1;durP2;ratioP2;P2;SDS_P1;SDS_P2;PMS_P1;PMS_P2;Temp;Humidity;BMP_temperature;BMP_pressure;BME280_temperature;BME280_humidity;BME280_pressure;Samples;Min_cycle;Max_cycle;Signal;HPM_P1;HPM_P2
2021/09/11 00:01:49;;;;;;;15.55;12.20;;;16.30;99.90;;;;;;5016953;28;20029;-80
2021/09/11 00:04:15;;;;;;;18.27;12.75;;;16.30;99.90;;;;;;5016466;28;20026;-80
2021/09/11 00:06:40;;;;;;;16.65;12.15;;;16.20;99.90;;;;;;5016979;28;20033;-80
2021/09/11 00:09:07;;;;;;;20.63;13.05;;;16.20;99.90;;;;;;5017886;28;20081;-79
2021/09/11 00:11:33;;;;;;;19.13;13.75;;;16.20;99.90;;;;;;5015827;28;20022;-79
2021/09/11 00:13:59;;;;;;;18.77;12.73;;;16.30;99.90;;;;;;5018180;28;20108;-79
2021/09/11 00:16:24;;;;;;;17.80;12.95;;;16.30;99.90;;;;;;5017918;28;20124;-80
2021/09/11 00:18:50;;;;;;;19.80;13.40;;;16.30;99.90;;;;;;5016020;28;20491;-80
2021/09/11 00:21:16;;;;;;;17.70;12.60;;;16.20;99.90;;;;;;5016355;28;20372;-80
2021/09/11 00:23:42;;;;;;;16.95;12.23;;;16.20;99.90;;;;;;5017851;28;20022;-80
2021/09/11 00:26:08;;;;;;;16.30;11.55;;;16.20;99.90;;;;;;5017081;28;20030;-80
2021/09/11 00:28:33;;;;;;;24.38;12.60;;;16.20;99.90;;;;;;5016345;28;20030;-80
2021/09/11 00:30:59;;;;;;;16.23;12.77;;;16.20;99.90;;;;;;5016819;28;20060;-80
2021/09/11 00:33:26;;;;;;;17.52;12.38;;;16.20;99.90;;;;;;5017252;28;20026;-79
2021/09/11 00:35:52;;;;;;;16.27;11.95;;;16.30;99.90;;;;;;5018137;28;20395;-80
2021/09/11 00:38:17;;;;;;;16.55;12.23;;;16.40;99.90;;;;;;5016786;28;20025;-79
2021/09/11 00:40:43;;;;;;;15.18;12.63;;;16.30;99.90;;;;;;5016490;28;20483;-80
2021/09/11 00:43:09;;;;;;;21.63;12.52;;;16.30;99.90;;;;;;5017042;28;20030;-80
2021/09/11 00:45:34;;;;;;;14.95;10.95;;;16.40;99.90;;;;;;5016896;28;20617;-80
2021/09/11 00:48:00;;;;;;;17.98;12.07;;;16.50;99.90;;;;;;5018713;28;20037;-79
2021/09/11 00:50:26;;;;;;;16.10;11.20;;;16.40;99.90;;;;;;5017830;28;20356;-79
2021/09/11 00:52:52;;;;;;;15.52;11.02;;;16.50;99.90;;;;;;5017414;28;20432;-79
2021/09/11 00:55:18;;;;;;;16.48;11.75;;;16.50;99.90;;;;;;5016748;28;20549;-80
2021/09/11 00:57:46;;;;;;;14.55;12.07;;;16.50;99.90;;;;;;5016060;28;20030;-79
2021/09/11 01:00:13;;;;;;;15.73;11.85;;;16.50;99.90;;;;;;5017732;28;20045;-79
2021/09/11 01:02:39;;;;;;;18.13;11.27;;;16.50;99.90;;;;;;5016619;28;20447;-80
2021/09/11 01:05:07;;;;;;;17.65;11.27;;;16.50;99.90;;;;;;5016061;28;20037;-80
2021/09/11 01:07:34;;;;;;;17.80;11.32;;;16.60;99.90;;;;;;5017147;28;20025;-79
2021/09/11 01:10:01;;;;;;;20.25;11.50;;;16.60;99.90;;;;;;5018233;28;20026;-79
2021/09/11 01:12:27;;;;;;;16.48;10.90;;;16.60;99.90;;;;;;5016372;28;20145;-80
2021/09/11 01:14:53;;;;;;;19.63;11.80;;;16.60;99.90;;;;;;5016714;28;20391;-80
2021/09/11 01:17:19;;;;;;;15.43;11.55;;;16.60;99.90;;;;;;5017532;28;20179;-80
2021/09/11 01:19:44;;;;;;;15.13;10.80;;;16.60;99.90;;;;;;5017306;28;20053;-80
2021/09/11 01:22:14;;;;;;;16.02;10.73;;;16.70;99.90;;;;;;5015933;28;20479;-79
2021/09/11 01:24:58;;;;;;;15.77;11.27;;;16.70;99.90;;;;;;5017627;28;20033;-79
2021/09/11 01:27:24;;;;;;;13.40;10.52;;;16.70;99.90;;;;;;5019885;28;20017;-80
2021/09/11 01:29:55;;;;;;;14.18;10.68;;;16.70;99.90;;;;;;5019532;28;20030;-80
2021/09/11 01:32:21;;;;;;;15.15;10.70;;;16.70;99.90;;;;;;5019653;28;20065;-79
2021/09/11 01:34:47;;;;;;;13.45;10.82;;;16.70;99.90;;;;;;5019446;28;20053;-80
2021/09/11 01:37:14;;;;;;;15.07;10.65;;;16.60;99.90;;;;;;5019632;28;20026;-80
2021/09/11 01:39:40;;;;;;;17.05;10.98;;;16.60;99.90;;;;;;5020517;28;20030;-79
2021/09/11 01:42:05;;;;;;;13.98;10.18;;;16.70;99.90;;;;;;5019848;28;20437;-80
2021/09/11 01:44:31;;;;;;;17.27;10.30;;;16.70;99.90;;;;;;5019739;28;20124;-79
2021/09/11 01:46:57;;;;;;;13.63;10.35;;;16.70;99.90;;;;;;5019422;28;20379;-79
2021/09/11 01:49:23;;;;;;;21.20;9.57;;;16.70;99.90;;;;;;5020987;28;20022;-80
2021/09/11 01:51:48;;;;;;;17.13;9.80;;;16.70;99.90;;;;;;5019714;28;20471;-79
2021/09/11 01:54:14;;;;;;;16.83;10.15;;;16.60;99.90;;;;;;5019172;28;20159;-80
2021/09/11 01:56:40;;;;;;;15.40;9.95;;;16.70;99.90;;;;;;5019856;28;20387;-80
2021/09/11 01:59:05;;;;;;;16.38;10.15;;;16.60;99.90;;;;;;5019382;28;20058;-79
2021/09/11 02:01:31;;;;;;;14.77;9.25;;;16.60;99.90;;;;;;5019837;28;20121;-79
2021/09/11 02:03:56;;;;;;;13.73;10.02;;;16.60;99.90;;;;;;5019495;28;20113;-79
2021/09/11 02:06:23;;;;;;;15.75;8.85;;;16.60;99.90;;;;;;5018907;28;20537;-79
2021/09/11 02:08:48;;;;;;;15.30;9.70;;;16.60;99.90;;;;;;5019632;28;20376;-80
2021/09/11 02:11:14;;;;;;;13.35;9.43;;;16.70;99.90;;;;;;5019388;28;20037;-79
2021/09/11 02:13:41;;;;;;;13.05;9.57;;;16.60;99.90;;;;;;5020347;28;20037;-80
2021/09/11 02:16:07;;;;;;;13.50;8.50;;;16.70;99.90;;;;;;5020497;28;20087;-80
2021/09/11 02:18:33;;;;;;;12.32;7.97;;;16.70;99.90;;;;;;5020309;28;20026;-79
2021/09/11 02:20:58;;;;;;;12.25;7.82;;;16.70;99.90;;;;;;5020888;28;20475;-79
2021/09/11 02:23:24;;;;;;;12.65;8.50;;;16.70;99.90;;;;;;5020991;28;20061;-79
2021/09/11 02:25:51;;;;;;;13.52;8.82;;;16.70;99.90;;;;;;5021226;28;20042;-79
2021/09/11 02:28:17;;;;;;;15.38;9.18;;;16.70;99.90;;;;;;5021739;28;20029;-80
2021/09/11 02:30:43;;;;;;;14.57;8.65;;;16.70;99.90;;;;;;5019861;28;20026;-79
2021/09/11 02:33:10;;;;;;;12.18;9.25;;;16.60;99.90;;;;;;5018788;28;20033;-80
2021/09/11 02:35:36;;;;;;;14.50;8.52;;;16.60;99.90;;;;;;5018405;28;20085;-79
2021/09/11 02:38:02;;;;;;;12.98;8.75;;;16.60;99.90;;;;;;5019011;28;20062;-79
2021/09/11 02:40:27;;;;;;;12.55;8.00;;;16.60;99.90;;;;;;5020334;28;20057;-79
2021/09/11 02:42:53;;;;;;;14.35;8.32;;;16.60;99.90;;;;;;5019718;28;20034;-79
2021/09/11 02:45:19;;;;;;;11.93;8.60;;;16.60;99.90;;;;;;5019617;28;20503;-79
2021/09/11 02:47:44;;;;;;;13.15;7.55;;;16.60;99.90;;;;;;5018893;28;20181;-80
2021/09/11 02:50:10;;;;;;;13.25;7.82;;;16.60;99.90;;;;;;5019111;28;20030;-80
2021/09/11 02:52:35;;;;;;;15.63;7.70;;;16.60;99.90;;;;;;5018470;28;20041;-79
2021/09/11 02:55:01;;;;;;;14.10;7.70;;;16.70;99.90;;;;;;5017106;28;20034;-79
2021/09/11 02:57:27;;;;;;;16.55;8.20;;;16.70;99.90;;;;;;5017452;28;20105;-79
2021/09/11 02:59:52;;;;;;;12.13;7.50;;;16.70;99.90;;;;;;5017067;28;20022;-79
2021/09/11 03:02:18;;;;;;;13.60;8.15;;;16.70;99.90;;;;;;5016146;28;20034;-79
2021/09/11 03:04:44;;;;;;;15.98;7.50;;;16.70;99.90;;;;;;5016608;28;20025;-79
2021/09/11 03:07:09;;;;;;;12.13;7.05;;;16.70;99.90;;;;;;5016631;28;20034;-79
2021/09/11 03:09:35;;;;;;;11.45;7.15;;;16.70;99.90;;;;;;5017198;28;20391;-79
2021/09/11 03:12:01;;;;;;;13.70;7.65;;;16.70;99.90;;;;;;5016569;28;20022;-80
2021/09/11 03:14:26;;;;;;;11.93;7.88;;;16.80;99.90;;;;;;5017764;28;20026;-80
2021/09/11 03:16:52;;;;;;;15.40;6.97;;;16.70;99.90;;;;;;5016723;28;20022;-79
2021/09/11 03:19:18;;;;;;;14.40;6.90;;;16.70;99.90;;;;;;5017213;28;20113;-79
2021/09/11 03:21:43;;;;;;;13.00;7.32;;;16.70;99.90;;;;;;5017520;28;20390;-80
2021/09/11 03:24:09;;;;;;;11.65;7.07;;;16.70;99.90;;;;;;5016847;28;20030;-79
2021/09/11 03:26:34;;;;;;;13.70;7.15;;;16.70;99.90;;;;;;5016896;28;20026;-79
2021/09/11 03:29:00;;;;;;;13.07;6.63;;;16.70;99.90;;;;;;5016834;28;20539;-79
2021/09/11 03:31:25;;;;;;;14.48;6.82;;;16.70;99.90;;;;;;5017753;28;20026;-79
2021/09/11 03:33:51;;;;;;;11.35;6.50;;;16.60;99.90;;;;;;5017103;28;20052;-79
2021/09/11 03:36:17;;;;;;;13.40;7.35;;;16.70;99.90;;;;;;5018929;28;20018;-82
2021/09/11 03:38:42;;;;;;;15.68;6.88;;;16.60;99.90;;;;;;5018791;28;20097;-79
2021/09/11 03:41:08;;;;;;;12.07;6.53;;;16.70;99.90;;;;;;5018007;28;20026;-79
2021/09/11 03:43:34;;;;;;;17.20;6.78;;;16.70;99.90;;;;;;5017563;28;20033;-79
2021/09/11 03:45:59;;;;;;;15.90;7.15;;;16.70;99.90;;;;;;5017532;28;20045;-80
2021/09/11 03:48:25;;;;;;;14.02;6.97;;;16.70;99.90;;;;;;5017153;28;20045;-79
2021/09/11 03:50:50;;;;;;;17.33;6.93;;;16.70;99.90;;;;;;5017406;28;20101;-79
2021/09/11 03:53:16;;;;;;;13.30;6.80;;;16.80;99.90;;;;;;5018879;28;20049;-79
2021/09/11 03:55:42;;;;;;;17.63;7.22;;;16.70;99.90;;;;;;5018595;28;20133;-79
2021/09/11 03:58:08;;;;;;;14.75;7.28;;;16.70;99.90;;;;;;5017497;28;20057;-80
2021/09/11 04:00:35;;;;;;;12.20;6.65;;;16.70;99.90;;;;;;5017804;28;20033;-80
2021/09/11 04:03:01;;;;;;;13.55;7.05;;;16.70;99.90;;;;;;5017243;28;20022;-79
2021/09/11 04:05:26;;;;;;;12.48;6.78;;;16.70;99.90;;;;;;5017758;28;20028;-79
2021/09/11 04:07:52;;;;;;;14.65;6.55;;;16.70;99.90;;;;;;5017942;28;20030;-80
2021/09/11 04:10:18;;;;;;;9.25;6.50;;;16.70;99.90;;;;;;5017831;28;20383;-79
2021/09/11 04:12:43;;;;;;;15.38;7.40;;;16.70;99.90;;;;;;5017973;28;20044;-79
2021/09/11 04:15:09;;;;;;;16.35;6.80;;;16.70;99.90;;;;;;5017697;28;20223;-79
2021/09/11 04:17:35;;;;;;;11.80;6.70;;;16.70;99.90;;;;;;5018185;28;20025;-80
2021/09/11 04:20:00;;;;;;;12.75;7.28;;;16.80;99.90;;;;;;5016800;28;20506;-79
2021/09/11 04:22:26;;;;;;;13.40;7.25;;;16.80;99.90;;;;;;5017393;28;20030;-79
2021/09/11 04:24:52;;;;;;;11.10;7.07;;;16.80;99.90;;;;;;5018172;28;20030;-80
2021/09/11 04:27:18;;;;;;;13.43;6.60;;;16.80;99.90;;;;;;5015617;28;20120;-79
2021/09/11 04:29:43;;;;;;;11.65;6.78;;;16.80;99.90;;;;;;5016097;28;20064;-79
2021/09/11 04:32:09;;;;;;;13.82;6.68;;;16.90;99.90;;;;;;5015633;28;20028;-80
2021/09/11 04:34:34;;;;;;;14.63;7.65;;;16.90;99.90;;;;;;5016559;28;20116;-79
2021/09/11 04:37:00;;;;;;;10.88;7.28;;;16.90;99.90;;;;;;5016233;28;20018;-79
2021/09/11 04:39:29;;;;;;;11.90;7.60;;;16.90;99.90;;;;;;5017477;28;20022;-79
2021/09/11 04:41:54;;;;;;;17.48;7.60;;;16.90;99.90;;;;;;5018174;28;20473;-80
2021/09/11 04:44:20;;;;;;;17.45;7.80;;;16.90;99.90;;;;;;5016102;28;20060;-79
2021/09/11 04:46:46;;;;;;;13.52;7.40;;;17.00;99.90;;;;;;5016162;28;20079;-80
2021/09/11 04:49:11;;;;;;;15.50;7.13;;;17.00;99.90;;;;;;5016226;28;20026;-80
2021/09/11 04:51:37;;;;;;;10.82;7.53;;;17.00;99.90;;;;;;5015473;28;20438;-79
2021/09/11 04:54:02;;;;;;;14.65;7.30;;;16.90;99.90;;;;;;5015847;28;20073;-80
2021/09/11 04:56:28;;;;;;;17.42;7.40;;;16.90;99.90;;;;;;5015763;28;20029;-79
2021/09/11 04:58:54;;;;;;;14.15;7.15;;;16.90;99.90;;;;;;5019090;28;20099;-79
2021/09/11 05:01:20;;;;;;;17.35;7.93;;;16.90;99.90;;;;;;5022937;28;20557;-80
2021/09/11 05:03:46;;;;;;;13.55;7.55;;;16.90;99.90;;;;;;5022346;28;20048;-80
2021/09/11 05:06:12;;;;;;;15.85;8.20;;;17.00;99.90;;;;;;5022006;28;20032;-79
2021/09/11 05:08:38;;;;;;;16.33;8.85;;;16.90;99.90;;;;;;5005176;28;20036;-79
2021/09/11 05:11:03;;;;;;;12.25;7.40;;;16.80;99.90;;;;;;5023095;28;20442;-79
2021/09/11 05:13:29;;;;;;;15.93;8.25;;;16.80;99.90;;;;;;5022374;28;20026;-79
2021/09/11 05:15:54;;;;;;;16.42;8.35;;;16.80;99.90;;;;;;5022668;28;20022;-79
2021/09/11 05:18:20;;;;;;;12.00;7.55;;;16.80;99.90;;;;;;5023647;28;20022;-79
2021/09/11 05:20:46;;;;;;;13.50;7.65;;;16.80;99.90;;;;;;5024001;28;20041;-79
2021/09/11 05:23:11;;;;;;;14.00;8.13;;;16.80;99.90;;;;;;5022654;28;20076;-79
2021/09/11 05:25:37;;;;;;;12.55;7.18;;;16.90;99.90;;;;;;5023599;28;20030;-79
2021/09/11 05:28:03;;;;;;;10.70;7.10;;;16.80;99.90;;;;;;5022650;28;20414;-80
2021/09/11 05:30:28;;;;;;;13.48;7.15;;;16.80;99.90;;;;;;5022090;28;20034;-80
2021/09/11 05:32:54;;;;;;;11.70;7.00;;;16.90;99.90;;;;;;5022273;28;20033;-80
2021/09/11 05:35:20;;;;;;;10.32;7.15;;;16.80;99.90;;;;;;5022296;28;20021;-79
2021/09/11 05:37:45;;;;;;;11.73;7.00;;;16.90;99.90;;;;;;5023098;28;20052;-80
2021/09/11 05:40:11;;;;;;;13.13;7.18;;;16.90;99.90;;;;;;5024147;28;20379;-80
2021/09/11 05:42:37;;;;;;;12.65;7.28;;;16.90;99.90;;;;;;5023222;28;20109;-79
2021/09/11 05:45:06;;;;;;;15.25;7.70;;;16.80;99.90;;;;;;5022739;28;20034;-79
2021/09/11 05:47:32;;;;;;;14.77;7.32;;;16.80;99.90;;;;;;5022132;28;20074;-79
2021/09/11 05:49:59;;;;;;;10.63;7.03;;;16.80;99.90;;;;;;5023814;28;20132;-80
2021/09/11 05:52:24;;;;;;;9.88;6.88;;;16.80;99.90;;;;;;5027102;28;20030;-80
2021/09/11 05:54:50;;;;;;;14.98;8.43;;;16.90;99.90;;;;;;5026481;28;20398;-79
2021/09/11 05:57:16;;;;;;;13.48;7.55;;;16.80;99.90;;;;;;5027279;28;20446;-80
2021/09/11 05:59:41;;;;;;;13.00;7.72;;;16.80;99.90;;;;;;5026986;28;20034;-80
2021/09/11 06:02:07;;;;;;;13.50;7.65;;;16.80;99.90;;;;;;5027218;28;20026;-80
2021/09/11 06:04:33;;;;;;;14.65;7.47;;;16.80;99.90;;;;;;5027403;28;20096;-80
2021/09/11 06:06:58;;;;;;;15.73;8.35;;;16.90;99.90;;;;;;5024484;28;20026;-79
2021/09/11 06:09:24;;;;;;;14.30;7.07;;;16.90;99.90;;;;;;5020898;28;20068;-79
2021/09/11 06:11:50;;;;;;;14.93;7.38;;;17.00;99.90;;;;;;5017508;28;20030;-79
2021/09/11 06:14:15;;;;;;;10.10;8.00;;;16.90;99.90;;;;;;5016250;28;20499;-79
2021/09/11 06:16:41;;;;;;;15.15;6.88;;;17.00;99.90;;;;;;5016408;28;20022;-79
2021/09/11 06:19:06;;;;;;;14.80;7.65;;;17.00;99.90;;;;;;5017769;28;20022;-79
2021/09/11 06:21:32;;;;;;;11.70;7.22;;;16.90;99.90;;;;;;4999974;28;20463;-79
2021/09/11 06:23:58;;;;;;;9.68;7.00;;;17.00;99.90;;;;;;5015943;28;20037;-79
2021/09/11 06:26:23;;;;;;;9.85;6.97;;;17.00;99.90;;;;;;5016212;28;20503;-79
2021/09/11 06:28:49;;;;;;;10.95;6.72;;;17.10;99.90;;;;;;5016982;28;20037;-79
2021/09/11 06:31:14;;;;;;;9.35;6.63;;;17.10;99.90;;;;;;5017143;28;20033;-79
2021/09/11 06:33:40;;;;;;;12.13;7.20;;;17.20;99.90;;;;;;5017503;28;20467;-79
2021/09/11 06:36:10;;;;;;;12.65;7.28;;;17.20;99.90;;;;;;5017556;28;20129;-79
2021/09/11 06:38:36;;;;;;;11.68;6.85;;;17.20;99.90;;;;;;5018303;28;20025;-79
2021/09/11 06:41:02;;;;;;;12.60;6.93;;;17.30;99.90;;;;;;5021140;28;20132;-80
2021/09/11 06:43:27;;;;;;;10.30;6.20;;;17.30;99.90;;;;;;5020493;28;20113;-80
2021/09/11 06:45:53;;;;;;;12.43;6.82;;;17.40;99.90;;;;;;5021447;28;20030;-80
2021/09/11 06:48:19;;;;;;;10.68;6.72;;;17.50;99.90;;;;;;5017959;28;20026;-80
2021/09/11 06:50:44;;;;;;;10.45;6.95;;;17.40;99.90;;;;;;5018090;28;20049;-80
2021/09/11 06:53:10;;;;;;;9.95;6.57;;;17.40;99.90;;;;;;5018414;28;20053;-79
2021/09/11 06:55:35;;;;;;;10.70;6.72;;;17.40;99.90;;;;;;5017425;28;20084;-80
2021/09/11 06:58:01;;;;;;;12.30;7.65;;;17.30;99.90;;;;;;5016372;28;20022;-79
2021/09/11 07:00:27;;;;;;;10.25;7.10;;;17.40;99.90;;;;;;5016640;28;20030;-79
2021/09/11 07:02:54;;;;;;;12.82;8.38;;;17.40;99.90;;;;;;5016176;28;20032;-79
2021/09/11 07:05:20;;;;;;;11.85;8.43;;;17.40;99.90;;;;;;5017588;28;20061;-79
2021/09/11 07:07:46;;;;;;;11.13;7.78;;;17.40;99.90;;;;;;5017075;28;20037;-79
2021/09/11 07:10:11;;;;;;;16.13;8.50;;;17.50;99.90;;;;;;5017233;28;20549;-79
2021/09/11 07:12:37;;;;;;;13.18;7.05;;;17.60;99.90;;;;;;5017337;28;20098;-78
2021/09/11 07:15:05;;;;;;;15.52;8.05;;;17.70;99.90;;;;;;5017922;28;20111;-79
2021/09/11 07:17:30;;;;;;;11.70;8.02;;;17.70;99.90;;;;;;5017289;28;20037;-79
2021/09/11 07:19:56;;;;;;;12.57;8.05;;;17.70;99.90;;;;;;5017390;28;20022;-79
2021/09/11 07:22:22;;;;;;;14.32;8.32;;;17.60;99.90;;;;;;5018111;28;20022;-79
2021/09/11 07:24:48;;;;;;;10.18;7.20;;;17.80;99.90;;;;;;5021596;28;20028;-80
2021/09/11 07:27:13;;;;;;;13.63;7.53;;;18.00;99.90;;;;;;5019577;28;20061;-79
2021/09/11 07:29:39;;;;;;;10.57;7.75;;;18.00;99.90;;;;;;5020204;28;20041;-80
2021/09/11 07:32:06;;;;;;;10.10;7.22;;;18.00;99.90;;;;;;5019653;28;20029;-80
2021/09/11 07:34:31;;;;;;;11.23;7.68;;;18.10;99.90;;;;;;5019932;28;20034;-80
2021/09/11 07:36:57;;;;;;;10.95;8.13;;;18.10;99.90;;;;;;5020685;28;20085;-79
2021/09/11 07:39:23;;;;;;;14.52;8.68;;;18.00;99.90;;;;;;5020126;28;20021;-80
2021/09/11 07:41:49;;;;;;;12.07;8.85;;;18.00;99.90;;;;;;5020502;28;20026;-80
2021/09/11 07:44:14;;;;;;;11.93;8.45;;;18.00;99.90;;;;;;5019984;28;20026;-80
2021/09/11 07:46:40;;;;;;;11.40;8.20;;;18.10;99.90;;;;;;5019394;28;20542;-79
2021/09/11 07:49:06;;;;;;;13.52;9.50;;;18.40;99.90;;;;;;5021201;28;20026;-80
2021/09/11 07:51:32;;;;;;;10.65;8.13;;;18.40;99.90;;;;;;5020460;28;20523;-80
2021/09/11 07:53:57;;;;;;;12.32;9.60;;;18.30;99.90;;;;;;5020017;28;20042;-80
2021/09/11 07:56:23;;;;;;;13.50;9.05;;;18.30;99.90;;;;;;5021054;28;20025;-80
2021/09/11 07:58:49;;;;;;;13.35;8.60;;;18.40;99.90;;;;;;5019643;28;20032;-80
2021/09/11 08:01:15;;;;;;;12.52;9.30;;;18.40;99.90;;;;;;5020657;28;20108;-80
2021/09/11 08:03:40;;;;;;;11.32;8.93;;;18.60;99.90;;;;;;5021134;28;20030;-80
2021/09/11 08:06:09;;;;;;;12.68;8.68;;;18.70;99.90;;;;;;5020333;28;20131;-80
2021/09/11 08:08:36;;;;;;;12.13;9.23;;;18.90;99.90;;;;;;5020747;28;20034;-79
2021/09/11 08:11:02;;;;;;;14.10;10.15;;;19.10;99.90;;;;;;5020332;28;20030;-80
2021/09/11 08:13:28;;;;;;;11.27;8.32;;;19.10;99.90;;;;;;5019368;28;20026;-80
2021/09/11 08:15:53;;;;;;;12.48;9.95;;;19.10;99.90;;;;;;5020249;28;20510;-79
2021/09/11 08:18:19;;;;;;;14.48;10.18;;;18.70;99.90;;;;;;5022132;28;20033;-80
2021/09/11 08:20:45;;;;;;;12.65;11.32;;;18.40;99.90;;;;;;5021153;28;20033;-80
2021/09/11 08:23:11;;;;;;;12.95;10.38;;;18.30;99.90;;;;;;5019282;28;20490;-80
2021/09/11 08:25:36;;;;;;;13.50;9.65;;;18.60;99.90;;;;;;5018999;28;20058;-78
2021/09/11 08:28:02;;;;;;;14.98;9.13;;;19.00;99.90;;;;;;5019506;28;20040;-79
2021/09/11 08:30:28;;;;;;;11.73;9.35;;;19.40;99.90;;;;;;5020637;28;20032;-79
2021/09/11 08:32:54;;;;;;;13.38;10.38;;;20.00;99.90;;;;;;5014306;28;20097;-79
2021/09/11 08:35:19;;;;;;;12.80;10.25;;;19.90;99.90;;;;;;5016610;28;20274;-78
2021/09/11 08:37:45;;;;;;;13.50;11.27;;;19.60;99.90;;;;;;5016565;28;20235;-78
2021/09/11 08:40:14;;;;;;;15.90;11.07;;;19.40;99.90;;;;;;5016181;28;20026;-79
2021/09/11 08:42:40;;;;;;;15.50;11.95;;;19.10;99.90;;;;;;5017550;28;20406;-79
2021/09/11 08:45:10;;;;;;;15.73;12.18;;;19.00;99.90;;;;;;5016486;28;20032;-79
2021/09/11 08:47:40;;;;;;;17.38;12.70;;;19.00;99.90;;;;;;5016189;28;20105;-78
2021/09/11 08:50:06;;;;;;;15.40;12.75;;;19.00;99.90;;;;;;5016440;28;20033;-79
2021/09/11 08:52:33;;;;;;;19.27;13.15;;;19.10;99.90;;;;;;5016207;28;20046;-78
2021/09/11 08:54:59;;;;;;;16.23;13.00;;;19.10;99.90;;;;;;5017928;28;20025;-79
2021/09/11 08:57:26;;;;;;;17.15;13.65;;;19.10;99.90;;;;;;5015764;28;20026;-78
2021/09/11 08:59:53;;;;;;;16.50;13.68;;;19.10;99.90;;;;;;5012986;28;20497;-78
2021/09/11 09:02:22;;;;;;;18.55;15.05;;;19.20;99.90;;;;;;5014775;28;20021;-80
2021/09/11 09:04:57;;;;;;;16.33;14.63;;;19.10;99.90;;;;;;5014797;28;20159;-79
2021/09/11 09:07:40;;;;;;;17.48;14.18;;;19.00;99.90;;;;;;5015193;28;20033;-78
2021/09/11 09:10:18;;;;;;;21.38;14.05;;;19.10;99.90;;;;;;5014765;28;20073;-79
2021/09/11 09:12:46;;;;;;;16.95;14.57;;;19.10;99.90;;;;;;5015414;28;20030;-79
2021/09/11 09:15:17;;;;;;;15.38;13.15;;;19.10;99.90;;;;;;5015846;28;20030;-79
2021/09/11 09:17:45;;;;;;;15.55;13.75;;;19.00;99.90;;;;;;5016015;28;20479;-78
2021/09/11 09:20:13;;;;;;;13.73;12.27;;;19.10;99.90;;;;;;5016022;28;20038;-79
2021/09/11 09:22:39;;;;;;;13.85;12.38;;;19.10;99.90;;;;;;5017665;28;20033;-79
2021/09/11 09:25:19;;;;;;;12.57;10.30;;;19.30;99.90;;;;;;5014009;28;20022;-79
2021/09/11 09:27:53;;;;;;;12.25;10.48;;;19.70;99.90;;;;;;5013016;28;20033;-78
2021/09/11 09:30:21;;;;;;;12.75;9.30;;;19.80;99.90;;;;;;5013713;28;20057;-79
2021/09/11 09:32:49;;;;;;;9.52;8.02;;;19.90;99.90;;;;;;5014251;28;20549;-79
2021/09/11 09:35:25;;;;;;;9.52;7.65;;;20.10;99.90;;;;;;5013738;28;20475;-79
2021/09/11 09:38:04;;;;;;;6.97;6.28;;;20.20;99.90;;;;;;5015213;28;20018;-79
2021/09/11 09:40:34;;;;;;;10.00;7.38;;;19.80;99.90;;;;;;5014074;28;20121;-79
2021/09/11 09:43:00;;;;;;;9.65;6.97;;;19.70;99.90;;;;;;5014339;28;20114;-79
2021/09/11 09:45:34;;;;;;;8.35;6.82;;;19.80;99.90;;;;;;5015233;28;20041;-79
2021/09/11 09:48:05;;;;;;;7.00;6.30;;;19.90;99.90;;;;;;5018215;28;20037;-79
2021/09/11 09:50:39;;;;;;;7.88;6.50;;;19.90;99.90;;;;;;5019491;28;20108;-79
2021/09/11 09:53:06;;;;;;;8.02;6.05;;;20.10;99.90;;;;;;5017888;28;20054;-79
2021/09/11 09:55:32;;;;;;;5.88;5.20;;;20.10;99.90;;;;;;5018049;28;20022;-79
2021/09/11 09:57:59;;;;;;;10.73;6.45;;;20.10;99.90;;;;;;5018129;28;20022;-79
2021/09/11 10:00:26;;;;;;;7.68;5.90;;;19.90;99.90;;;;;;5021424;28;20029;-79
2021/09/11 10:02:52;;;;;;;6.25;5.65;;;19.80;99.90;;;;;;5020047;28;20084;-79
2021/09/11 10:05:21;;;;;;;7.82;5.90;;;19.70;99.90;;;;;;5018739;28;20030;-79
2021/09/11 10:07:55;;;;;;;7.55;6.03;;;19.90;99.90;;;;;;5018497;28;20036;-80
2021/09/11 10:10:30;;;;;;;10.05;6.03;;;19.80;99.90;;;;;;5018791;28;20395;-79
2021/09/11 10:13:06;;;;;;;6.40;5.20;;;19.70;99.90;;;;;;5018560;28;20117;-80
2021/09/11 10:15:35;;;;;;;10.10;5.97;;;19.70;99.90;;;;;;5017958;28;20045;-80
2021/09/11 10:18:25;;;;;;;8.60;6.32;;;19.60;99.90;;;;;;5017916;28;20026;-80
2021/09/11 10:21:15;;;;;;;8.00;5.65;;;19.70;99.90;;;;;;5016830;28;20112;-79
2021/09/11 10:24:11;;;;;;;8.10;5.35;;;19.80;99.90;;;;;;5016579;28;20430;-79
2021/09/11 10:27:11;;;;;;;10.02;5.88;;;19.90;99.90;;;;;;5017961;28;20026;-79
2021/09/11 10:29:49;;;;;;;7.78;4.97;;;20.10;99.90;;;;;;5017998;28;20022;-80
2021/09/11 10:32:22;;;;;;;9.13;5.22;;;20.30;99.90;;;;;;5018755;28;20085;-79
2021/09/11 10:35:06;;;;;;;10.90;5.45;;;20.60;99.90;;;;;;5017724;28;20029;-79
2021/09/11 10:37:54;;;;;;;10.68;5.50;;;20.60;99.90;;;;;;5018308;28;20018;-79
2021/09/11 10:40:30;;;;;;;10.18;5.60;;;20.70;99.90;;;;;;5017800;28;20041;-79
2021/09/11 10:43:05;;;;;;;8.25;5.07;;;20.70;99.90;;;;;;5018020;28;20041;-79
2021/09/11 10:46:02;;;;;;;9.02;5.35;;;20.60;99.90;;;;;;5017552;28;20032;-79
2021/09/11 10:48:40;;;;;;;9.30;5.53;;;20.50;99.90;;;;;;5016423;28;20061;-79
2021/09/11 10:51:24;;;;;;;7.38;5.05;;;20.60;99.90;;;;;;5017499;28;20030;-79
2021/09/11 10:54:23;;;;;;;8.45;5.57;;;20.60;99.90;;;;;;5017660;28;20538;-79
2021/09/11 10:56:48;;;;;;;8.73;5.15;;;20.50;99.90;;;;;;5018197;28;20429;-79
2021/09/11 11:02:01;;;;;;;10.35;4.57;;;20.50;99.90;;;;;;5018412;28;20029;-79
2021/09/11 11:04:46;;;;;;;7.50;4.47;;;20.80;99.90;;;;;;5017117;28;20025;-79
2021/09/11 11:07:13;;;;;;;7.10;4.25;;;21.00;99.90;;;;;;5016997;28;20022;-79
2021/09/11 11:09:41;;;;;;;9.23;4.30;;;20.90;99.90;;;;;;5016439;28;20038;-79
2021/09/11 11:12:11;;;;;;;6.00;3.40;;;20.70;99.90;;;;;;5018759;28;20398;-79
2021/09/11 11:14:45;;;;;;;5.32;3.10;;;20.50;99.90;;;;;;5016829;28;20037;-79
2021/09/11 11:17:11;;;;;;;4.57;3.17;;;20.40;99.90;;;;;;5016735;28;20053;-80
2021/09/11 11:19:42;;;;;;;4.90;2.80;;;20.10;99.90;;;;;;5018412;28;20029;-79
2021/09/11 11:22:10;;;;;;;8.05;3.63;;;20.30;99.90;;;;;;5016865;28;20018;-80
2021/09/11 11:24:39;;;;;;;6.22;3.30;;;20.40;99.90;;;;;;5017455;28;20026;-79
2021/09/11 11:27:11;;;;;;;5.47;3.30;;;20.70;99.90;;;;;;5017027;28;20032;-79
2021/09/11 11:29:37;;;;;;;7.50;3.10;;;21.20;99.90;;;;;;5018971;28;20025;-79
2021/09/11 11:32:04;;;;;;;5.43;3.38;;;21.30;99.90;;;;;;5017998;28;20036;-80
2021/09/11 11:34:30;;;;;;;7.43;3.60;;;21.30;99.90;;;;;;5018788;28;20032;-79
2021/09/11 11:36:59;;;;;;;6.18;3.35;;;21.20;99.90;;;;;;5016730;28;20021;-79
2021/09/11 11:39:33;;;;;;;7.13;3.65;;;21.30;99.90;;;;;;5017217;28;20025;-79
2021/09/11 11:42:04;;;;;;;6.45;3.83;;;21.50;99.90;;;;;;5017059;28;20025;-79
2021/09/11 11:44:31;;;;;;;4.97;3.40;;;21.70;99.90;;;;;;5017100;28;20021;-79
2021/09/11 11:47:02;;;;;;;6.10;3.45;;;21.50;99.90;;;;;;5016269;28;20033;-79
2021/09/11 11:49:39;;;;;;;7.78;3.58;;;21.60;99.90;;;;;;5015609;28;20026;-79
2021/09/11 11:52:06;;;;;;;7.18;3.42;;;21.50;99.90;;;;;;5015968;28;20037;-79
2021/09/11 11:54:36;;;;;;;10.93;3.90;;;21.50;99.90;;;;;;5015790;28;20124;-79
2021/09/11 11:57:08;;;;;;;7.45;3.95;;;21.20;99.90;;;;;;5016038;28;20018;-79
2021/09/11 11:59:34;;;;;;;7.33;3.77;;;21.10;99.90;;;;;;5016902;28;20058;-79
2021/09/11 12:02:15;;;;;;;6.20;3.85;;;20.90;99.90;;;;;;5017413;28;20328;-79
2021/09/11 12:04:40;;;;;;;7.22;3.88;;;20.90;99.90;;;;;;5017578;28;20401;-79
2021/09/11 12:07:07;;;;;;;11.68;4.43;;;20.70;99.90;;;;;;5017114;28;20030;-79
2021/09/11 12:09:32;;;;;;;6.72;3.58;;;20.80;99.90;;;;;;5014296;28;20038;-78
2021/09/11 12:12:12;;;;;;;7.10;3.72;;;21.10;99.90;;;;;;5015529;28;20022;-78
2021/09/11 12:14:37;;;;;;;5.38;3.58;;;21.10;99.90;;;;;;5015836;28;20029;-78
2021/09/11 12:17:03;;;;;;;6.22;3.70;;;21.10;99.90;;;;;;5016424;28;20022;-79
2021/09/11 12:19:32;;;;;;;9.02;3.45;;;21.20;99.90;;;;;;5016340;28;20029;-79
2021/09/11 12:21:58;;;;;;;8.52;3.40;;;21.10;99.90;;;;;;5015147;28;20018;-79
2021/09/11 12:24:26;;;;;;;10.88;3.38;;;21.30;99.90;;;;;;5016415;28;20032;-78
2021/09/11 12:26:52;;;;;;;7.00;3.80;;;21.40;99.90;;;;;;5015913;28;20022;-78
2021/09/11 12:29:18;;;;;;;7.43;3.30;;;21.70;99.90;;;;;;5017392;28;20028;-79
2021/09/11 12:31:54;;;;;;;5.82;3.30;;;21.60;99.90;;;;;;5015397;28;20026;-79
2021/09/11 12:34:21;;;;;;;7.68;3.63;;;21.70;99.90;;;;;;5014413;28;20080;-79
2021/09/11 12:36:47;;;;;;;7.90;2.85;;;21.60;99.90;;;;;;5014571;28;20022;-80
2021/09/11 12:39:15;;;;;;;6.95;3.00;;;21.60;99.90;;;;;;5014269;28;20025;-79
2021/09/11 12:41:43;;;;;;;5.72;2.92;;;21.70;99.90;;;;;;5016620;28;20079;-78